sensor_id;sensor_type;location;lat;lon;timestamp;P1;durP1;ratioP1;P2;durP2;ratioP2
53267;SDS011;39156;51.176;6.738;2023-04-03T00:00:23;44.05;;;41.65;;
53267;SDS011;39156;51.176;6.738;2023-04-03T00:02:48;43.15;;;40.85;;
53267;SDS011;39156;51.176;6.738;2023-04-03T00:05:14;44.10;;;41.70;;
53267;SDS011;39156;51.176;6.738;2023-04-03T00:07:40;45.50;;;42.90;;
53267;SDS011;39156;51.176;6.738;2023-04-03T00:10:06;45.03;;;42.38;;
53267;SDS011;39156;51.176;6.738;2023-04-03T00:12:32;43.13;;;40.72;;
53267;SDS011;39156;51.176;6.738;2023-04-03T00:14:58;44.10;;;41.70;;
53267;SDS011;39156;51.176;6.738;2023-04-03T00:17:24;44.72;;;42.30;;
53267;SDS011;39156;51.176;6.738;2023-04-03T00:19:50;44.75;;;42.25;;
53267;SDS011;39156;51.176;6.738;2023-04-03T00:22:16;44.35;;;41.70;;
53267;SDS011;39156;51.176;6.738;2023-04-03T00:24:41;44.95;;;42.47;;
53267;SDS011;39156;51.176;6.738;2023-04-03T00:27:07;44.75;;;42.05;;
53267;SDS011;39156;51.176;6.738;2023-04-03T00:29:33;44.78;;;42.15;;
53267;SDS011;39156;51.176;6.738;2023-04-03T00:31:58;46.95;;;44.03;;
53267;SDS011;39156;51.176;6.738;2023-04-03T00:34:24;46.05;;;43.25;;
53267;SDS011;39156;51.176;6.738;2023-04-03T00:36:50;45.80;;;43.30;;
53267;SDS011;39156;51.176;6.738;2023-04-03T00:39:16;45.65;;;43.05;;
53267;SDS011;39156;51.176;6.738;2023-04-03T00:41:42;44.42;;;41.92;;
53267;SDS011;39156;51.176;6.738;2023-04-03T00:47:11;46.53;;;43.72;;
53267;SDS011;39156;51.176;6.738;2023-04-03T00:49:38;45.25;;;42.58;;
53267;SDS011;39156;51.176;6.738;2023-04-03T00:52:05;44.83;;;42.25;;
53267;SDS011;39156;51.176;6.738;2023-04-03T00:54:38;44.70;;;42.28;;
53267;SDS011;39156;51.176;6.738;2023-04-03T00:57:07;45.15;;;42.65;;
53267;SDS011;39156;51.176;6.738;2023-04-03T00:59:34;45.65;;;43.05;;
53267;SDS011;39156;51.176;6.738;2023-04-03T01:02:05;44.75;;;42.20;;
53267;SDS011;39156;51.176;6.738;2023-04-03T01:04:35;46.55;;;43.88;;
53267;SDS011;39156;51.176;6.738;2023-04-03T01:07:05;45.88;;;43.28;;
53267;SDS011;39156;51.176;6.738;2023-04-03T01:09:40;44.80;;;42.30;;
53267;SDS011;39156;51.176;6.738;2023-04-03T01:12:17;45.63;;;43.13;;
53267;SDS011;39156;51.176;6.738;2023-04-03T01:14:49;46.05;;;43.25;;
53267;SDS011;39156;51.176;6.738;2023-04-03T01:17:30;44.95;;;42.45;;
53267;SDS011;39156;51.176;6.738;2023-04-03T01:25:42;44.65;;;42.25;;
53267;SDS011;39156;51.176;6.738;2023-04-03T01:28:26;45.40;;;42.80;;
53267;SDS011;39156;51.176;6.738;2023-04-03T01:33:52;45.70;;;43.10;;
53267;SDS011;39156;51.176;6.738;2023-04-03T01:36:23;45.10;;;42.60;;
53267;SDS011;39156;51.176;6.738;2023-04-03T01:38:53;44.97;;;42.47;;
53267;SDS011;39156;51.176;6.738;2023-04-03T01:41:20;46.15;;;43.45;;
53267;SDS011;39156;51.176;6.738;2023-04-03T01:43:46;45.58;;;43.00;;
53267;SDS011;39156;51.176;6.738;2023-04-03T01:48:40;44.63;;;42.13;;
53267;SDS011;39156;51.176;6.738;2023-04-03T01:51:06;45.63;;;43.10;;
53267;SDS011;39156;51.176;6.738;2023-04-03T01:53:32;45.28;;;42.78;;
53267;SDS011;39156;51.176;6.738;2023-04-03T01:55:57;45.22;;;42.72;;
53267;SDS011;39156;51.176;6.738;2023-04-03T01:58:23;45.03;;;42.53;;
53267;SDS011;39156;51.176;6.738;2023-04-03T02:00:49;45.47;;;42.88;;
53267;SDS011;39156;51.176;6.738;2023-04-03T02:03:15;45.83;;;43.22;;
53267;SDS011;39156;51.176;6.738;2023-04-03T02:05:41;45.17;;;42.58;;
53267;SDS011;39156;51.176;6.738;2023-04-03T02:08:07;45.60;;;43.05;;
53267;SDS011;39156;51.176;6.738;2023-04-03T02:10:33;45.42;;;42.63;;
53267;SDS011;39156;51.176;6.738;2023-04-03T02:12:58;45.05;;;42.45;;
53267;SDS011;39156;51.176;6.738;2023-04-03T02:15:24;44.30;;;41.60;;
53267;SDS011;39156;51.176;6.738;2023-04-03T02:17:50;44.28;;;41.88;;
53267;SDS011;39156;51.176;6.738;2023-04-03T02:20:17;44.75;;;42.22;;
53267;SDS011;39156;51.176;6.738;2023-04-03T02:22:42;44.50;;;42.08;;
53267;SDS011;39156;51.176;6.738;2023-04-03T02:25:08;45.42;;;42.92;;
53267;SDS011;39156;51.176;6.738;2023-04-03T02:27:35;45.83;;;43.20;;
53267;SDS011;39156;51.176;6.738;2023-04-03T02:30:01;45.05;;;42.65;;
53267;SDS011;39156;51.176;6.738;2023-04-03T02:32:28;44.53;;;41.92;;
53267;SDS011;39156;51.176;6.738;2023-04-03T02:34:54;45.05;;;42.45;;
53267;SDS011;39156;51.176;6.738;2023-04-03T02:37:20;44.22;;;41.80;;
53267;SDS011;39156;51.176;6.738;2023-04-03T02:39:46;44.50;;;42.00;;
53267;SDS011;39156;51.176;6.738;2023-04-03T02:42:11;45.17;;;42.50;;
53267;SDS011;39156;51.176;6.738;2023-04-03T02:44:37;44.80;;;42.30;;
53267;SDS011;39156;51.176;6.738;2023-04-03T02:47:04;45.45;;;42.95;;
53267;SDS011;39156;51.176;6.738;2023-04-03T02:49:30;44.53;;;42.13;;
53267;SDS011;39156;51.176;6.738;2023-04-03T02:51:55;44.80;;;42.40;;
53267;SDS011;39156;51.176;6.738;2023-04-03T02:54:21;45.08;;;42.53;;
53267;SDS011;39156;51.176;6.738;2023-04-03T02:56:48;47.00;;;44.28;;
53267;SDS011;39156;51.176;6.738;2023-04-03T02:59:14;45.05;;;42.28;;
53267;SDS011;39156;51.176;6.738;2023-04-03T03:01:40;45.08;;;42.50;;
53267;SDS011;39156;51.176;6.738;2023-04-03T03:04:06;45.22;;;42.55;;
53267;SDS011;39156;51.176;6.738;2023-04-03T03:06:32;46.92;;;44.22;;
53267;SDS011;39156;51.176;6.738;2023-04-03T03:08:57;45.58;;;42.97;;
53267;SDS011;39156;51.176;6.738;2023-04-03T03:11:23;45.28;;;42.45;;
53267;SDS011;39156;51.176;6.738;2023-04-03T03:13:50;45.63;;;43.03;;
53267;SDS011;39156;51.176;6.738;2023-04-03T03:16:15;45.90;;;43.40;;
53267;SDS011;39156;51.176;6.738;2023-04-03T03:18:41;45.83;;;43.13;;
53267;SDS011;39156;51.176;6.738;2023-04-03T03:21:08;45.33;;;42.72;;
53267;SDS011;39156;51.176;6.738;2023-04-03T03:23:35;45.17;;;42.67;;
53267;SDS011;39156;51.176;6.738;2023-04-03T03:26:04;47.08;;;44.45;;
53267;SDS011;39156;51.176;6.738;2023-04-03T03:28:32;45.78;;;43.05;;
53267;SDS011;39156;51.176;6.738;2023-04-03T03:31:00;45.10;;;42.55;;
53267;SDS011;39156;51.176;6.738;2023-04-03T03:33:26;45.80;;;43.25;;
53267;SDS011;39156;51.176;6.738;2023-04-03T03:35:55;46.40;;;43.63;;
53267;SDS011;39156;51.176;6.738;2023-04-03T03:38:21;46.42;;;43.83;;
53267;SDS011;39156;51.176;6.738;2023-04-03T03:40:48;45.63;;;43.03;;
53267;SDS011;39156;51.176;6.738;2023-04-03T03:43:15;45.30;;;42.85;;
53267;SDS011;39156;51.176;6.738;2023-04-03T03:45:41;45.33;;;42.72;;
53267;SDS011;39156;51.176;6.738;2023-04-03T03:48:08;46.38;;;43.42;;
53267;SDS011;39156;51.176;6.738;2023-04-03T03:50:34;45.47;;;42.83;;
53267;SDS011;39156;51.176;6.738;2023-04-03T03:53:00;46.03;;;43.33;;
53267;SDS011;39156;51.176;6.738;2023-04-03T03:55:25;46.17;;;43.53;;
53267;SDS011;39156;51.176;6.738;2023-04-03T03:57:51;46.80;;;44.05;;
53267;SDS011;39156;51.176;6.738;2023-04-03T04:00:17;45.75;;;43.25;;
53267;SDS011;39156;51.176;6.738;2023-04-03T04:02:43;45.95;;;43.35;;
53267;SDS011;39156;51.176;6.738;2023-04-03T04:05:09;45.63;;;43.13;;
53267;SDS011;39156;51.176;6.738;2023-04-03T04:07:35;46.50;;;43.78;;
53267;SDS011;39156;51.176;6.738;2023-04-03T04:10:01;46.25;;;43.55;;
53267;SDS011;39156;51.176;6.738;2023-04-03T04:12:27;45.85;;;43.20;;
53267;SDS011;39156;51.176;6.738;2023-04-03T04:14:53;46.70;;;43.95;;
53267;SDS011;39156;51.176;6.738;2023-04-03T04:17:18;45.78;;;43.13;;
53267;SDS011;39156;51.176;6.738;2023-04-03T04:19:44;46.03;;;43.35;;
53267;SDS011;39156;51.176;6.738;2023-04-03T04:22:10;45.95;;;43.42;;
53267;SDS011;39156;51.176;6.738;2023-04-03T04:24:36;46.97;;;44.05;;
53267;SDS011;39156;51.176;6.738;2023-04-03T04:27:02;46.90;;;44.28;;
53267;SDS011;39156;51.176;6.738;2023-04-03T04:29:28;46.88;;;44.17;;
53267;SDS011;39156;51.176;6.738;2023-04-03T04:31:54;45.85;;;43.15;;
53267;SDS011;39156;51.176;6.738;2023-04-03T04:34:19;46.45;;;43.80;;
53267;SDS011;39156;51.176;6.738;2023-04-03T04:36:45;46.15;;;43.42;;
53267;SDS011;39156;51.176;6.738;2023-04-03T04:39:11;46.25;;;43.65;;
53267;SDS011;39156;51.176;6.738;2023-04-03T04:41:36;46.45;;;43.95;;
53267;SDS011;39156;51.176;6.738;2023-04-03T04:44:02;46.30;;;43.40;;
53267;SDS011;39156;51.176;6.738;2023-04-03T04:46:28;46.17;;;43.40;;
53267;SDS011;39156;51.176;6.738;2023-04-03T04:48:53;46.55;;;43.75;;
53267;SDS011;39156;51.176;6.738;2023-04-03T04:51:19;46.33;;;43.63;;
53267;SDS011;39156;51.176;6.738;2023-04-03T04:53:45;46.80;;;44.13;;
53267;SDS011;39156;51.176;6.738;2023-04-03T04:56:11;46.85;;;44.00;;
53267;SDS011;39156;51.176;6.738;2023-04-03T04:58:36;45.50;;;43.00;;
53267;SDS011;39156;51.176;6.738;2023-04-03T05:01:06;46.40;;;43.80;;
53267;SDS011;39156;51.176;6.738;2023-04-03T05:03:34;47.40;;;44.70;;
53267;SDS011;39156;51.176;6.738;2023-04-03T05:06:00;46.03;;;43.42;;
53267;SDS011;39156;51.176;6.738;2023-04-03T05:08:26;46.45;;;43.75;;
53267;SDS011;39156;51.176;6.738;2023-04-03T05:10:52;47.30;;;44.50;;
53267;SDS011;39156;51.176;6.738;2023-04-03T05:13:18;46.45;;;43.72;;
53267;SDS011;39156;51.176;6.738;2023-04-03T05:15:44;46.83;;;44.22;;
53267;SDS011;39156;51.176;6.738;2023-04-03T05:18:11;46.35;;;43.65;;
53267;SDS011;39156;51.176;6.738;2023-04-03T05:20:37;46.28;;;43.67;;
53267;SDS011;39156;51.176;6.738;2023-04-03T05:23:03;46.53;;;43.85;;
53267;SDS011;39156;51.176;6.738;2023-04-03T05:25:28;46.78;;;44.03;;
53267;SDS011;39156;51.176;6.738;2023-04-03T05:27:54;46.55;;;43.58;;
53267;SDS011;39156;51.176;6.738;2023-04-03T05:30:20;46.20;;;43.60;;
53267;SDS011;39156;51.176;6.738;2023-04-03T05:32:46;47.65;;;44.90;;
53267;SDS011;39156;51.176;6.738;2023-04-03T05:35:12;45.92;;;42.83;;
53267;SDS011;39156;51.176;6.738;2023-04-03T05:37:38;46.25;;;43.72;;
53267;SDS011;39156;51.176;6.738;2023-04-03T05:40:05;45.83;;;43.13;;
53267;SDS011;39156;51.176;6.738;2023-04-03T05:42:32;45.80;;;43.13;;
53267;SDS011;39156;51.176;6.738;2023-04-03T05:44:58;45.83;;;43.00;;
53267;SDS011;39156;51.176;6.738;2023-04-03T05:47:23;46.33;;;43.83;;
53267;SDS011;39156;51.176;6.738;2023-04-03T05:49:49;47.63;;;44.70;;
53267;SDS011;39156;51.176;6.738;2023-04-03T05:52:31;46.70;;;44.00;;
53267;SDS011;39156;51.176;6.738;2023-04-03T05:55:01;45.25;;;42.65;;
53267;SDS011;39156;51.176;6.738;2023-04-03T05:57:27;45.25;;;42.58;;
53267;SDS011;39156;51.176;6.738;2023-04-03T05:59:53;47.47;;;44.70;;
53267;SDS011;39156;51.176;6.738;2023-04-03T06:02:20;46.00;;;43.40;;
53267;SDS011;39156;51.176;6.738;2023-04-03T06:04:48;45.08;;;42.55;;
53267;SDS011;39156;51.176;6.738;2023-04-03T06:07:15;47.15;;;44.47;;
53267;SDS011;39156;51.176;6.738;2023-04-03T06:09:47;44.97;;;42.45;;
53267;SDS011;39156;51.176;6.738;2023-04-03T06:14:40;45.30;;;42.42;;
53267;SDS011;39156;51.176;6.738;2023-04-03T06:17:06;45.63;;;42.92;;
53267;SDS011;39156;51.176;6.738;2023-04-03T06:19:33;46.50;;;43.80;;
53267;SDS011;39156;51.176;6.738;2023-04-03T06:22:00;45.00;;;42.50;;
53267;SDS011;39156;51.176;6.738;2023-04-03T06:24:25;45.47;;;42.85;;
53267;SDS011;39156;51.176;6.738;2023-04-03T06:26:52;45.05;;;42.50;;
53267;SDS011;39156;51.176;6.738;2023-04-03T06:29:18;44.65;;;42.08;;
53267;SDS011;39156;51.176;6.738;2023-04-03T06:34:11;47.00;;;44.22;;
53267;SDS011;39156;51.176;6.738;2023-04-03T06:36:38;46.15;;;43.60;;
53267;SDS011;39156;51.176;6.738;2023-04-03T06:39:05;45.28;;;42.58;;
53267;SDS011;39156;51.176;6.738;2023-04-03T06:41:32;45.10;;;42.40;;
53267;SDS011;39156;51.176;6.738;2023-04-03T06:43:58;43.97;;;41.15;;
53267;SDS011;39156;51.176;6.738;2023-04-03T06:46:24;42.78;;;40.08;;
53267;SDS011;39156;51.176;6.738;2023-04-03T06:48:51;43.63;;;41.05;;
53267;SDS011;39156;51.176;6.738;2023-04-03T06:51:18;39.65;;;37.35;;
53267;SDS011;39156;51.176;6.738;2023-04-03T06:53:52;38.88;;;36.47;;
53267;SDS011;39156;51.176;6.738;2023-04-03T06:56:20;39.53;;;37.33;;
53267;SDS011;39156;51.176;6.738;2023-04-03T06:58:46;39.75;;;37.47;;
53267;SDS011;39156;51.176;6.738;2023-04-03T07:01:13;37.83;;;35.45;;
53267;SDS011;39156;51.176;6.738;2023-04-03T07:03:41;37.80;;;35.65;;
53267;SDS011;39156;51.176;6.738;2023-04-03T07:06:09;37.42;;;35.03;;
53267;SDS011;39156;51.176;6.738;2023-04-03T07:08:37;37.35;;;35.25;;
53267;SDS011;39156;51.176;6.738;2023-04-03T07:11:04;34.80;;;32.65;;
53267;SDS011;39156;51.176;6.738;2023-04-03T07:15:57;38.00;;;35.85;;
53267;SDS011;39156;51.176;6.738;2023-04-03T07:18:23;35.53;;;33.53;;
53267;SDS011;39156;51.176;6.738;2023-04-03T07:20:50;35.92;;;33.83;;
53267;SDS011;39156;51.176;6.738;2023-04-03T07:23:16;34.03;;;31.93;;
53267;SDS011;39156;51.176;6.738;2023-04-03T07:25:46;33.40;;;31.40;;
53267;SDS011;39156;51.176;6.738;2023-04-03T07:28:13;32.75;;;30.75;;
53267;SDS011;39156;51.176;6.738;2023-04-03T07:30:44;34.15;;;32.05;;
53267;SDS011;39156;51.176;6.738;2023-04-03T07:33:15;33.05;;;31.13;;
53267;SDS011;39156;51.176;6.738;2023-04-03T07:35:43;34.00;;;31.80;;
53267;SDS011;39156;51.176;6.738;2023-04-03T07:40:35;33.50;;;31.60;;
53267;SDS011;39156;51.176;6.738;2023-04-03T07:43:02;34.95;;;32.80;;
53267;SDS011;39156;51.176;6.738;2023-04-03T07:45:28;32.80;;;31.00;;
53267;SDS011;39156;51.176;6.738;2023-04-03T07:47:54;31.58;;;29.88;;
53267;SDS011;39156;51.176;6.738;2023-04-03T07:50:20;31.58;;;29.77;;
53267;SDS011;39156;51.176;6.738;2023-04-03T07:52:47;32.10;;;30.20;;
53267;SDS011;39156;51.176;6.738;2023-04-03T07:55:13;32.42;;;30.55;;
53267;SDS011;39156;51.176;6.738;2023-04-03T07:57:39;30.88;;;29.08;;
53267;SDS011;39156;51.176;6.738;2023-04-03T08:00:06;31.98;;;30.17;;
53267;SDS011;39156;51.176;6.738;2023-04-03T08:02:33;32.35;;;30.50;;
53267;SDS011;39156;51.176;6.738;2023-04-03T08:04:59;32.42;;;30.63;;
53267;SDS011;39156;51.176;6.738;2023-04-03T08:07:25;32.70;;;30.80;;
53267;SDS011;39156;51.176;6.738;2023-04-03T08:09:51;32.42;;;30.63;;
53267;SDS011;39156;51.176;6.738;2023-04-03T08:12:17;31.83;;;29.93;;
53267;SDS011;39156;51.176;6.738;2023-04-03T08:14:43;30.63;;;28.83;;
53267;SDS011;39156;51.176;6.738;2023-04-03T08:17:09;33.97;;;32.07;;
53267;SDS011;39156;51.176;6.738;2023-04-03T08:19:37;30.65;;;28.95;;
53267;SDS011;39156;51.176;6.738;2023-04-03T08:22:03;31.35;;;29.52;;
53267;SDS011;39156;51.176;6.738;2023-04-03T08:24:30;32.08;;;30.08;;
53267;SDS011;39156;51.176;6.738;2023-04-03T08:26:57;31.88;;;29.85;;
53267;SDS011;39156;51.176;6.738;2023-04-03T08:29:23;31.87;;;30.17;;
53267;SDS011;39156;51.176;6.738;2023-04-03T08:34:15;32.42;;;30.73;;
53267;SDS011;39156;51.176;6.738;2023-04-03T08:36:41;30.00;;;28.40;;
53267;SDS011;39156;51.176;6.738;2023-04-03T08:39:07;29.92;;;28.13;;
53267;SDS011;39156;51.176;6.738;2023-04-03T08:41:37;29.42;;;27.80;;
53267;SDS011;39156;51.176;6.738;2023-04-03T08:46:55;29.42;;;27.73;;
53267;SDS011;39156;51.176;6.738;2023-04-03T08:52:12;29.92;;;28.23;;
53267;SDS011;39156;51.176;6.738;2023-04-03T08:54:50;28.55;;;26.95;;
53267;SDS011;39156;51.176;6.738;2023-04-03T08:57:26;30.70;;;29.08;;
53267;SDS011;39156;51.176;6.738;2023-04-03T08:59:56;30.80;;;29.00;;
53267;SDS011;39156;51.176;6.738;2023-04-03T09:02:31;30.50;;;28.80;;
53267;SDS011;39156;51.176;6.738;2023-04-03T09:05:15;29.33;;;27.73;;
53267;SDS011;39156;51.176;6.738;2023-04-03T09:07:47;31.45;;;29.75;;
53267;SDS011;39156;51.176;6.738;2023-04-03T09:10:27;33.63;;;31.90;;
53267;SDS011;39156;51.176;6.738;2023-04-03T09:13:00;31.00;;;29.30;;
53267;SDS011;39156;51.176;6.738;2023-04-03T09:15:32;31.52;;;29.70;;
53267;SDS011;39156;51.176;6.738;2023-04-03T09:23:47;31.70;;;30.00;;
53267;SDS011;39156;51.176;6.738;2023-04-03T09:28:54;31.40;;;29.70;;
53267;SDS011;39156;51.176;6.738;2023-04-03T09:31:25;31.85;;;30.15;;
53267;SDS011;39156;51.176;6.738;2023-04-03T09:34:00;31.95;;;29.80;;
53267;SDS011;39156;51.176;6.738;2023-04-03T09:36:51;30.23;;;28.63;;
53267;SDS011;39156;51.176;6.738;2023-04-03T09:39:22;30.95;;;29.25;;
53267;SDS011;39156;51.176;6.738;2023-04-03T09:42:05;31.17;;;29.48;;
53267;SDS011;39156;51.176;6.738;2023-04-03T09:44:44;32.30;;;30.60;;
53267;SDS011;39156;51.176;6.738;2023-04-03T09:47:28;31.25;;;29.48;;
53267;SDS011;39156;51.176;6.738;2023-04-03T09:52:42;32.47;;;30.60;;
53267;SDS011;39156;51.176;6.738;2023-04-03T09:57:55;32.55;;;30.67;;
53267;SDS011;39156;51.176;6.738;2023-04-03T10:00:28;34.22;;;32.42;;
53267;SDS011;39156;51.176;6.738;2023-04-03T10:02:59;32.47;;;30.67;;
53267;SDS011;39156;51.176;6.738;2023-04-03T10:08:08;32.33;;;30.55;;
53267;SDS011;39156;51.176;6.738;2023-04-03T10:10:45;31.65;;;29.83;;
53267;SDS011;39156;51.176;6.738;2023-04-03T10:13:14;30.70;;;29.10;;
53267;SDS011;39156;51.176;6.738;2023-04-03T10:15:45;32.00;;;30.20;;
53267;SDS011;39156;51.176;6.738;2023-04-03T10:21:15;33.33;;;31.58;;
53267;SDS011;39156;51.176;6.738;2023-04-03T10:24:14;32.40;;;30.60;;
53267;SDS011;39156;51.176;6.738;2023-04-03T10:27:18;32.85;;;31.13;;
53267;SDS011;39156;51.176;6.738;2023-04-03T10:29:55;32.65;;;30.98;;
53267;SDS011;39156;51.176;6.738;2023-04-03T10:36:07;33.60;;;31.80;;
53267;SDS011;39156;51.176;6.738;2023-04-03T10:38:51;34.67;;;32.67;;
53267;SDS011;39156;51.176;6.738;2023-04-03T10:41:24;32.78;;;30.98;;
53267;SDS011;39156;51.176;6.738;2023-04-03T10:46:51;35.30;;;33.40;;
53267;SDS011;39156;51.176;6.738;2023-04-03T10:49:43;35.42;;;33.63;;
53267;SDS011;39156;51.176;6.738;2023-04-03T10:55:37;35.97;;;34.08;;
53267;SDS011;39156;51.176;6.738;2023-04-03T10:58:07;36.33;;;34.33;;
53267;SDS011;39156;51.176;6.738;2023-04-03T11:00:47;35.40;;;33.53;;
53267;SDS011;39156;51.176;6.738;2023-04-03T11:03:17;34.83;;;33.03;;
53267;SDS011;39156;51.176;6.738;2023-04-03T11:05:59;35.60;;;33.70;;
53267;SDS011;39156;51.176;6.738;2023-04-03T11:08:34;36.35;;;34.28;;
53267;SDS011;39156;51.176;6.738;2023-04-03T11:11:22;35.45;;;33.55;;
53267;SDS011;39156;51.176;6.738;2023-04-03T11:17:04;36.28;;;34.38;;
53267;SDS011;39156;51.176;6.738;2023-04-03T11:19:34;37.30;;;35.30;;
53267;SDS011;39156;51.176;6.738;2023-04-03T11:22:32;36.70;;;34.80;;
53267;SDS011;39156;51.176;6.738;2023-04-03T11:25:04;36.30;;;34.25;;
53267;SDS011;39156;51.176;6.738;2023-04-03T11:27:46;36.70;;;34.80;;
53267;SDS011;39156;51.176;6.738;2023-04-03T11:32:57;34.85;;;33.05;;
53267;SDS011;39156;51.176;6.738;2023-04-03T11:35:51;37.20;;;35.20;;
53267;SDS011;39156;51.176;6.738;2023-04-03T11:38:24;35.70;;;33.83;;
53267;SDS011;39156;51.176;6.738;2023-04-03T11:40:54;35.45;;;33.45;;
53267;SDS011;39156;51.176;6.738;2023-04-03T11:43:26;36.17;;;34.33;;
53267;SDS011;39156;51.176;6.738;2023-04-03T11:45:56;36.55;;;34.65;;
53267;SDS011;39156;51.176;6.738;2023-04-03T11:51:02;35.08;;;33.28;;
53267;SDS011;39156;51.176;6.738;2023-04-03T11:53:52;35.70;;;33.90;;
53267;SDS011;39156;51.176;6.738;2023-04-03T12:01:46;36.35;;;34.45;;
53267;SDS011;39156;51.176;6.738;2023-04-03T12:04:19;36.20;;;34.35;;
53267;SDS011;39156;51.176;6.738;2023-04-03T12:11:51;35.70;;;33.72;;
53267;SDS011;39156;51.176;6.738;2023-04-03T12:14:17;37.65;;;35.70;;
53267;SDS011;39156;51.176;6.738;2023-04-03T12:16:44;36.63;;;34.45;;
53267;SDS011;39156;51.176;6.738;2023-04-03T12:26:51;36.17;;;34.28;;
53267;SDS011;39156;51.176;6.738;2023-04-03T12:29:49;37.30;;;35.40;;
53267;SDS011;39156;51.176;6.738;2023-04-03T12:35:43;35.70;;;33.80;;
53267;SDS011;39156;51.176;6.738;2023-04-03T12:38:31;38.05;;;35.97;;
53267;SDS011;39156;51.176;6.738;2023-04-03T12:41:31;35.70;;;33.80;;
53267;SDS011;39156;51.176;6.738;2023-04-03T12:44:33;36.88;;;34.95;;
53267;SDS011;39156;51.176;6.738;2023-04-03T12:47:15;36.38;;;34.25;;
53267;SDS011;39156;51.176;6.738;2023-04-03T12:49:51;37.88;;;35.88;;
53267;SDS011;39156;51.176;6.738;2023-04-03T12:52:32;35.13;;;33.22;;
53267;SDS011;39156;51.176;6.738;2023-04-03T12:55:01;38.30;;;36.25;;
53267;SDS011;39156;51.176;6.738;2023-04-03T12:57:29;37.25;;;35.30;;
53267;SDS011;39156;51.176;6.738;2023-04-03T12:59:56;36.63;;;34.63;;
53267;SDS011;39156;51.176;6.738;2023-04-03T13:02:23;36.35;;;34.33;;
53267;SDS011;39156;51.176;6.738;2023-04-03T13:04:52;38.33;;;36.22;;
53267;SDS011;39156;51.176;6.738;2023-04-03T13:07:25;35.08;;;33.28;;
53267;SDS011;39156;51.176;6.738;2023-04-03T13:09:58;37.78;;;35.67;;
53267;SDS011;39156;51.176;6.738;2023-04-03T13:12:28;36.63;;;34.53;;
53267;SDS011;39156;51.176;6.738;2023-04-03T13:14:55;40.28;;;38.08;;
53267;SDS011;39156;51.176;6.738;2023-04-03T13:17:29;37.10;;;35.15;;
53267;SDS011;39156;51.176;6.738;2023-04-03T13:19:56;35.75;;;33.85;;
53267;SDS011;39156;51.176;6.738;2023-04-03T13:23:02;36.63;;;34.63;;
53267;SDS011;39156;51.176;6.738;2023-04-03T13:25:32;37.05;;;35.00;;
53267;SDS011;39156;51.176;6.738;2023-04-03T13:28:02;36.22;;;34.20;;
53267;SDS011;39156;51.176;6.738;2023-04-03T13:30:31;35.20;;;33.40;;
53267;SDS011;39156;51.176;6.738;2023-04-03T13:33:03;36.05;;;34.00;;
53267;SDS011;39156;51.176;6.738;2023-04-03T13:35:45;38.17;;;36.28;;
53267;SDS011;39156;51.176;6.738;2023-04-03T13:40:50;36.08;;;34.17;;
53267;SDS011;39156;51.176;6.738;2023-04-03T13:43:20;37.40;;;35.45;;
53267;SDS011;39156;51.176;6.738;2023-04-03T13:45:54;37.05;;;35.03;;
53267;SDS011;39156;51.176;6.738;2023-04-03T13:48:23;35.90;;;33.90;;
53267;SDS011;39156;51.176;6.738;2023-04-03T13:51:01;36.00;;;34.10;;
53267;SDS011;39156;51.176;6.738;2023-04-03T13:53:43;36.80;;;34.67;;
53267;SDS011;39156;51.176;6.738;2023-04-03T14:01:48;37.67;;;35.45;;
53267;SDS011;39156;51.176;6.738;2023-04-03T14:07:09;36.20;;;34.10;;
53267;SDS011;39156;51.176;6.738;2023-04-03T14:09:38;36.38;;;34.38;;
53267;SDS011;39156;51.176;6.738;2023-04-03T14:12:05;38.92;;;36.83;;
53267;SDS011;39156;51.176;6.738;2023-04-03T14:14:42;36.75;;;34.75;;
53267;SDS011;39156;51.176;6.738;2023-04-03T14:17:16;39.03;;;37.03;;
53267;SDS011;39156;51.176;6.738;2023-04-03T14:19:45;37.63;;;35.50;;
53267;SDS011;39156;51.176;6.738;2023-04-03T14:22:17;37.95;;;35.95;;
53267;SDS011;39156;51.176;6.738;2023-04-03T14:24:47;37.13;;;35.03;;
53267;SDS011;39156;51.176;6.738;2023-04-03T14:29:47;36.25;;;34.25;;
53267;SDS011;39156;51.176;6.738;2023-04-03T14:32:16;38.35;;;36.17;;
53267;SDS011;39156;51.176;6.738;2023-04-03T14:34:45;38.65;;;36.50;;
53267;SDS011;39156;51.176;6.738;2023-04-03T14:37:16;34.67;;;32.78;;
53267;SDS011;39156;51.176;6.738;2023-04-03T14:39:49;33.85;;;32.08;;
53267;SDS011;39156;51.176;6.738;2023-04-03T14:42:18;34.05;;;32.35;;
53267;SDS011;39156;51.176;6.738;2023-04-03T14:44:47;37.22;;;35.22;;
53267;SDS011;39156;51.176;6.738;2023-04-03T14:47:14;37.90;;;35.67;;
53267;SDS011;39156;51.176;6.738;2023-04-03T14:49:45;36.25;;;34.38;;
53267;SDS011;39156;51.176;6.738;2023-04-03T14:52:25;37.90;;;35.90;;
53267;SDS011;39156;51.176;6.738;2023-04-03T14:54:57;35.53;;;33.42;;
53267;SDS011;39156;51.176;6.738;2023-04-03T14:57:24;36.92;;;34.83;;
53267;SDS011;39156;51.176;6.738;2023-04-03T14:59:52;35.95;;;34.13;;
53267;SDS011;39156;51.176;6.738;2023-04-03T15:02:31;36.50;;;34.40;;
53267;SDS011;39156;51.176;6.738;2023-04-03T15:05:03;36.58;;;34.67;;
53267;SDS011;39156;51.176;6.738;2023-04-03T15:07:34;34.92;;;32.90;;
53267;SDS011;39156;51.176;6.738;2023-04-03T15:15:08;36.28;;;34.25;;
53267;SDS011;39156;51.176;6.738;2023-04-03T15:17:35;37.97;;;35.77;;
53267;SDS011;39156;51.176;6.738;2023-04-03T15:20:01;36.58;;;34.50;;
53267;SDS011;39156;51.176;6.738;2023-04-03T15:22:28;36.65;;;34.72;;
53267;SDS011;39156;51.176;6.738;2023-04-03T15:24:54;35.95;;;33.85;;
53267;SDS011;39156;51.176;6.738;2023-04-03T15:27:19;36.53;;;34.28;;
53267;SDS011;39156;51.176;6.738;2023-04-03T15:29:45;39.25;;;37.13;;
53267;SDS011;39156;51.176;6.738;2023-04-03T15:32:11;38.15;;;36.03;;
53267;SDS011;39156;51.176;6.738;2023-04-03T15:34:38;35.60;;;33.78;;
53267;SDS011;39156;51.176;6.738;2023-04-03T15:37:04;37.30;;;35.08;;
53267;SDS011;39156;51.176;6.738;2023-04-03T15:39:30;37.20;;;35.13;;
53267;SDS011;39156;51.176;6.738;2023-04-03T15:41:56;37.83;;;35.80;;
53267;SDS011;39156;51.176;6.738;2023-04-03T15:44:30;36.67;;;34.67;;
53267;SDS011;39156;51.176;6.738;2023-04-03T15:46:58;35.35;;;33.45;;
53267;SDS011;39156;51.176;6.738;2023-04-03T15:49:25;36.20;;;34.30;;
53267;SDS011;39156;51.176;6.738;2023-04-03T15:51:52;36.70;;;34.55;;
53267;SDS011;39156;51.176;6.738;2023-04-03T15:54:17;35.92;;;34.03;;
53267;SDS011;39156;51.176;6.738;2023-04-03T15:56:43;35.88;;;33.78;;
53267;SDS011;39156;51.176;6.738;2023-04-03T15:59:09;38.08;;;35.97;;
53267;SDS011;39156;51.176;6.738;2023-04-03T16:01:35;37.15;;;34.95;;
53267;SDS011;39156;51.176;6.738;2023-04-03T16:06:28;36.50;;;34.63;;
53267;SDS011;39156;51.176;6.738;2023-04-03T16:08:55;36.85;;;34.65;;
53267;SDS011;39156;51.176;6.738;2023-04-03T16:11:23;35.60;;;33.60;;
53267;SDS011;39156;51.176;6.738;2023-04-03T16:13:51;35.45;;;33.55;;
53267;SDS011;39156;51.176;6.738;2023-04-03T16:16:16;35.40;;;33.50;;
53267;SDS011;39156;51.176;6.738;2023-04-03T16:18:42;36.03;;;34.10;;
53267;SDS011;39156;51.176;6.738;2023-04-03T16:21:08;35.00;;;33.00;;
53267;SDS011;39156;51.176;6.738;2023-04-03T16:23:34;37.03;;;34.92;;
53267;SDS011;39156;51.176;6.738;2023-04-03T16:26:00;36.00;;;34.00;;